Ibitiura de Minas, Brazil
Current Conditions -  °F | °C
As of 2:00 PM on Saturday 20 Dec 2014 (Local Time) from SBYS Reporting Station
Broken Clouds Broken Clouds  
Wind Chill: 84°   Ceiling: 9000
Heat Index: 88°   Visibility: 6mi
Dew Point: 70°   Wind: 9mph
Humidity: 62%   Direction: 20°NNE
Pressure: 29.91"   Gusts: NA
Location:  22.06°S, 46.44°W
Report Text: SBYS 201600Z 02008KT 9999 SCT035 BKN090 29/21 Q1013
Loading
Personal Weather Stations






























Interactive Weather Map New forecast layout! Learn more

10-Day Weather Forecast

Advertisements
Track Severe Weather on mobile